Time;durP1;ratioP1;P1;durP2;ratioP2;P2;SDS_P1;SDS_P2;PMS_P1;PMS_P2;Temp;Humidity;BMP_temperature;BMP_pressure;BME280_temperature;BME280_humidity;BME280_pressure;Samples;Min_cycle;Max_cycle;Signal;HPM_P1;HPM_P2
2023/03/12 00:01:32;;;;;;;19.63;6.55;;;;;;;2.84;76.44;100965.88;5075790;28;20031;-68
2023/03/12 00:04:00;;;;;;;20.08;6.80;;;;;;;2.87;77.21;100963.38;5072167;28;20024;-69
2023/03/12 00:06:26;;;;;;;20.48;6.75;;;;;;;2.87;75.85;100955.53;5072050;28;20032;-69
2023/03/12 00:08:52;;;;;;;20.50;6.60;;;;;;;2.83;76.17;100958.91;5075772;28;20463;-68
2023/03/12 00:11:18;;;;;;;20.05;6.65;;;;;;;2.82;76.55;100960.59;5075680;28;20495;-69
2023/03/12 00:13:50;;;;;;;20.30;6.90;;;;;;;2.81;75.88;100952.72;5075853;28;20167;-68
2023/03/12 00:16:16;;;;;;;21.05;6.97;;;;;;;2.81;75.63;100952.72;5075634;28;20052;-68
2023/03/12 00:18:42;;;;;;;19.25;6.68;;;;;;;2.79;75.10;100948.31;5075757;28;20060;-68
2023/03/12 00:21:08;;;;;;;19.48;6.65;;;;;;;2.73;76.94;100949.81;5075730;28;20029;-69
2023/03/12 00:23:34;;;;;;;19.58;7.10;;;;;;;2.71;76.82;100944.53;5074185;28;20090;-68
2023/03/12 00:26:10;;;;;;;20.35;6.75;;;;;;;2.68;75.95;100936.59;5075541;28;20028;-68
2023/03/12 00:28:36;;;;;;;20.33;6.80;;;;;;;2.65;76.21;100925.13;5073216;28;20025;-68
2023/03/12 00:31:16;;;;;;;19.70;6.90;;;;;;;2.64;77.38;100919.03;5075292;28;20035;-68
2023/03/12 00:33:41;;;;;;;20.92;6.97;;;;;;;2.61;75.77;100918.94;5075362;28;20387;-68
2023/03/12 00:36:07;;;;;;;20.00;6.32;;;;;;;2.64;76.08;100920.78;5075176;28;20035;-68
2023/03/12 00:38:32;;;;;;;20.90;6.47;;;;;;;2.60;76.41;100914.53;5075443;28;20185;-69
2023/03/12 00:40:58;;;;;;;20.92;6.43;;;;;;;2.64;74.71;100912.94;5075517;28;20060;-69
2023/03/12 00:43:23;;;;;;;20.25;6.75;;;;;;;2.68;75.71;100915.72;5075174;28;20382;-68
2023/03/12 00:45:48;;;;;;;19.85;6.60;;;;;;;2.66;75.42;100916.47;5075307;28;20020;-69
2023/03/12 00:48:14;;;;;;;19.42;6.53;;;;;;;2.72;74.27;100916.69;5075128;28;20029;-68
2023/03/12 00:50:39;;;;;;;21.17;7.03;;;;;;;2.73;74.17;100903.72;5075116;28;20477;-69
2023/03/12 00:53:05;;;;;;;20.50;6.63;;;;;;;2.74;73.80;100902.88;5075064;28;20024;-68
2023/03/12 00:55:30;;;;;;;21.23;6.60;;;;;;;2.74;73.23;100905.50;5072576;28;20144;-69
2023/03/12 00:57:55;;;;;;;19.92;6.30;;;;;;;2.75;73.27;100903.75;5075081;28;20111;-69
2023/03/12 01:00:21;;;;;;;18.52;6.50;;;;;;;2.76;72.86;100900.31;5074915;28;20471;-69
2023/03/12 01:02:46;;;;;;;21.00;6.70;;;;;;;2.78;73.65;100903.88;5074247;28;20506;-68
2023/03/12 01:05:12;;;;;;;19.02;6.53;;;;;;;2.75;73.24;100902.06;5074899;28;20467;-68
2023/03/12 01:07:38;;;;;;;19.65;6.40;;;;;;;2.76;72.65;100892.50;5074739;28;20033;-68
2023/03/12 01:10:04;;;;;;;20.83;6.60;;;;;;;2.77;73.33;100897.78;5074897;28;20032;-68
2023/03/12 01:12:29;;;;;;;20.25;6.93;;;;;;;2.74;73.98;100878.50;5074747;28;20429;-69
2023/03/12 01:14:55;;;;;;;22.30;6.80;;;;;;;2.71;72.55;100874.06;5074605;28;20074;-69
2023/03/12 01:17:20;;;;;;;19.25;6.40;;;;;;;2.75;72.92;100877.66;5074568;28;20028;-69
2023/03/12 01:19:46;;;;;;;21.05;6.90;;;;;;;2.76;74.36;100882.94;5074707;28;20025;-68
2023/03/12 01:22:12;;;;;;;18.48;6.53;;;;;;;2.75;73.15;100882.88;5074451;28;20033;-69
2023/03/12 01:24:37;;;;;;;20.15;6.72;;;;;;;2.76;73.77;100867.25;5074359;28;20039;-69
2023/03/12 01:27:02;;;;;;;19.63;6.70;;;;;;;2.74;73.25;100879.38;5074561;28;20032;-68
2023/03/12 01:29:28;;;;;;;19.30;6.68;;;;;;;2.75;73.74;100880.25;5074351;28;20047;-68
2023/03/12 01:31:53;;;;;;;19.92;6.82;;;;;;;2.78;75.53;100888.19;5074368;28;20471;-68
2023/03/12 01:34:19;;;;;;;20.50;6.97;;;;;;;2.76;74.34;100884.66;5074162;28;20059;-68
2023/03/12 01:36:46;;;;;;;21.55;6.95;;;;;;;2.75;75.33;100881.16;5074105;28;20024;-68
2023/03/12 01:39:12;;;;;;;20.33;7.13;;;;;;;2.73;74.93;100874.97;5074350;28;20048;-68
2023/03/12 01:41:37;;;;;;;18.98;6.60;;;;;;;2.72;74.84;100869.72;5074020;28;20672;-68
2023/03/12 01:44:05;;;;;;;20.23;6.60;;;;;;;2.71;74.75;100868.84;5073925;28;20075;-69
2023/03/12 01:46:37;;;;;;;19.05;6.57;;;;;;;2.71;74.50;100863.63;5074167;28;20021;-72
2023/03/12 01:49:15;;;;;;;20.75;7.03;;;;;;;2.70;74.69;100867.03;5074082;28;20103;-71
2023/03/12 01:51:40;;;;;;;19.60;6.72;;;;;;;2.69;73.91;100854.81;5074048;28;20383;-72
2023/03/12 01:54:12;;;;;;;20.67;6.63;;;;;;;2.70;74.63;100846.16;5073729;28;20024;-72
2023/03/12 01:56:38;;;;;;;19.35;6.60;;;;;;;2.68;74.50;100839.09;5073674;28;20052;-72
2023/03/12 01:59:15;;;;;;;19.00;6.88;;;;;;;2.63;75.15;100841.53;5073650;28;20032;-69
2023/03/12 02:01:41;;;;;;;19.58;6.65;;;;;;;2.60;76.49;100844.06;5065279;28;20025;-69
2023/03/12 02:04:06;;;;;;;19.60;6.65;;;;;;;2.56;76.73;100848.28;5073615;28;20418;-72
2023/03/12 02:06:38;;;;;;;20.25;7.00;;;;;;;2.55;76.34;100846.50;5074036;28;20151;-70
2023/03/12 02:09:06;;;;;;;20.70;7.18;;;;;;;2.57;76.62;100834.38;5069476;28;20118;-69
2023/03/12 02:11:32;;;;;;;20.98;6.90;;;;;;;2.58;75.55;100832.69;5073388;28;20020;-72
2023/03/12 02:13:57;;;;;;;21.05;7.30;;;;;;;2.58;75.16;100832.69;5073239;28;20032;-70
2023/03/12 02:16:24;;;;;;;20.77;6.82;;;;;;;2.58;75.97;100830.06;5072962;28;20035;-72
2023/03/12 02:18:53;;;;;;;19.55;6.95;;;;;;;2.60;75.15;100831.00;5073412;28;20031;-72
2023/03/12 02:21:23;;;;;;;20.33;7.22;;;;;;;2.55;76.38;100819.50;5073448;28;20106;-71
2023/03/12 02:24:37;;;;;;;20.58;7.40;;;;;;;2.55;76.01;100819.50;5073170;28;20024;-70
2023/03/12 02:27:04;;;;;;;20.55;7.40;;;;;;;2.51;77.18;100807.19;5000115;28;20068;-69
2023/03/12 02:29:31;;;;;;;20.17;7.32;;;;;;;2.50;77.03;100808.88;5002960;28;20084;-72
2023/03/12 02:31:59;;;;;;;21.20;7.70;;;;;;;2.49;78.33;100809.75;5037223;28;20066;-72
2023/03/12 02:34:25;;;;;;;20.65;7.65;;;;;;;2.47;78.56;100800.06;5073310;28;20063;-71
2023/03/12 02:36:50;;;;;;;20.55;7.80;;;;;;;2.44;80.20;100801.72;5073220;28;20071;-72
2023/03/12 02:39:16;;;;;;;20.20;7.60;;;;;;;2.42;79.85;100799.91;5073254;28;20036;-70
2023/03/12 02:41:52;;;;;;;19.75;7.82;;;;;;;2.42;81.64;100813.84;5072974;28;20467;-68
2023/03/12 02:44:21;;;;;;;22.20;8.20;;;;;;;2.40;82.67;100812.00;5073347;28;20416;-69
2023/03/12 02:46:49;;;;;;;22.35;8.30;;;;;;;2.39;81.57;100813.72;5073118;28;20039;-68
2023/03/12 02:49:16;;;;;;;21.70;7.95;;;;;;;2.39;82.41;100813.72;5072803;28;20070;-68
2023/03/12 02:51:43;;;;;;;21.27;7.97;;;;;;;2.38;85.23;100817.16;5072768;28;20029;-69
2023/03/12 02:54:10;;;;;;;20.88;8.15;;;;;;;2.35;86.90;100811.81;5072944;28;20105;-68
2023/03/12 02:56:36;;;;;;;22.98;8.20;;;;;;;2.30;87.60;100804.66;5072536;28;20151;-68
2023/03/12 02:59:03;;;;;;;22.45;8.20;;;;;;;2.30;93.17;100812.47;5072730;28;20573;-68
2023/03/12 03:01:28;;;;;;;20.63;8.40;;;;;;;2.24;96.07;100806.22;5072718;28;20043;-69
2023/03/12 03:03:54;;;;;;;21.50;8.48;;;;;;;2.17;100.00;100795.47;5072866;28;20040;-68
2023/03/12 03:06:20;;;;;;;20.77;9.02;;;;;;;1.99;100.00;100791.34;5072914;28;20020;-68
2023/03/12 03:08:45;;;;;;;21.35;8.88;;;;;;;1.74;100.00;100794.72;5072689;28;20089;-68
2023/03/12 03:11:11;;;;;;;22.67;9.40;;;;;;;1.53;100.00;100798.25;5072477;28;20032;-68
2023/03/12 03:13:37;;;;;;;21.77;8.93;;;;;;;1.39;100.00;100794.19;5072687;28;20025;-68
2023/03/12 03:16:03;;;;;;;22.75;9.45;;;;;;;1.34;100.00;100790.50;5072547;28;20032;-69
2023/03/12 03:18:30;;;;;;;24.30;9.70;;;;;;;1.29;100.00;100811.16;5072787;28;20055;-68
2023/03/12 03:21:01;;;;;;;24.00;9.30;;;;;;;1.27;100.00;100805.00;5072668;28;20052;-68
2023/03/12 03:23:26;;;;;;;21.17;8.48;;;;;;;1.32;100.00;100806.06;5065040;28;20033;-68
2023/03/12 03:25:52;;;;;;;20.95;8.57;;;;;;;1.31;100.00;100793.00;5069301;28;20524;-68
2023/03/12 03:28:19;;;;;;;22.20;8.70;;;;;;;1.39;100.00;100797.69;5077095;28;20024;-69
2023/03/12 03:30:45;;;;;;;20.15;8.10;;;;;;;1.48;100.00;100799.78;5076615;28;20067;-68
2023/03/12 03:33:11;;;;;;;22.02;8.10;;;;;;;1.53;100.00;100793.03;5075447;28;20064;-68
2023/03/12 03:35:37;;;;;;;20.65;7.90;;;;;;;1.56;100.00;100792.28;5076612;28;20108;-68
2023/03/12 03:38:03;;;;;;;20.88;8.10;;;;;;;1.62;100.00;100792.53;5076425;28;20040;-68
2023/03/12 03:40:28;;;;;;;22.60;7.93;;;;;;;1.65;100.00;100792.66;5076325;28;20024;-69
2023/03/12 03:42:54;;;;;;;21.15;7.68;;;;;;;1.66;100.00;100775.28;5076558;28;20063;-68
2023/03/12 03:45:19;;;;;;;20.55;7.38;;;;;;;1.68;100.00;100760.59;5076277;28;20150;-68
2023/03/12 03:47:45;;;;;;;21.50;7.72;;;;;;;1.70;100.00;100772.88;5076272;28;20383;-68
2023/03/12 03:50:11;;;;;;;22.50;7.80;;;;;;;1.74;100.00;100756.50;5076293;28;20028;-68
2023/03/12 03:52:37;;;;;;;21.20;7.70;;;;;;;1.76;100.00;100747.88;5076104;28;20431;-68
2023/03/12 03:55:02;;;;;;;20.88;8.10;;;;;;;1.78;100.00;100744.50;5073911;28;20049;-68
2023/03/12 03:57:28;;;;;;;20.58;7.93;;;;;;;1.77;100.00;100740.09;5076377;28;20048;-68
2023/03/12 03:59:54;;;;;;;20.90;8.18;;;;;;;1.76;100.00;100733.09;5076294;28;20111;-68
2023/03/12 04:02:20;;;;;;;20.98;7.50;;;;;;;1.73;100.00;100740.81;5075939;28;20028;-69
2023/03/12 04:04:45;;;;;;;21.35;8.30;;;;;;;1.73;100.00;100741.72;5076285;28;20131;-68
2023/03/12 04:07:10;;;;;;;20.92;8.10;;;;;;;1.77;100.00;100744.44;5076120;28;20072;-68
2023/03/12 04:09:35;;;;;;;22.10;8.10;;;;;;;1.79;100.00;100740.16;5075827;28;20024;-72
2023/03/12 04:12:01;;;;;;;21.48;8.10;;;;;;;1.82;100.00;100732.44;5076035;28;20509;-68
2023/03/12 04:14:26;;;;;;;21.58;8.45;;;;;;;1.85;100.00;100730.88;5075653;28;20032;-68
2023/03/12 04:16:52;;;;;;;21.35;8.05;;;;;;;1.90;100.00;100723.22;5075882;28;20189;-68
2023/03/12 04:19:17;;;;;;;20.95;8.15;;;;;;;1.90;100.00;100718.00;5075627;28;20029;-70
2023/03/12 04:21:43;;;;;;;21.20;8.15;;;;;;;1.90;100.00;100721.47;5071526;28;20051;-68
2023/03/12 04:24:14;;;;;;;21.88;8.00;;;;;;;1.92;100.00;100716.31;5076710;28;20487;-68
2023/03/12 04:26:39;;;;;;;20.17;7.80;;;;;;;1.93;100.00;100707.69;5077525;28;20020;-68
2023/03/12 04:29:05;;;;;;;21.02;7.80;;;;;;;1.93;100.00;100692.03;5077115;28;20020;-69
2023/03/12 04:31:30;;;;;;;21.13;7.78;;;;;;;1.94;100.00;100693.81;5077171;28;20474;-68
2023/03/12 04:33:55;;;;;;;21.05;7.93;;;;;;;1.97;100.00;100690.44;5076311;28;20424;-68
2023/03/12 04:36:21;;;;;;;20.77;7.97;;;;;;;1.96;100.00;100684.31;5076695;28;20028;-74
2023/03/12 04:38:46;;;;;;;21.48;7.80;;;;;;;1.96;100.00;100676.50;5075857;28;20021;-68
2023/03/12 04:41:13;;;;;;;20.70;7.30;;;;;;;1.95;100.00;100682.53;5076032;28;20029;-69
2023/03/12 04:43:38;;;;;;;21.48;7.90;;;;;;;1.96;100.00;100681.72;5076181;28;20082;-69
2023/03/12 04:46:05;;;;;;;21.50;7.55;;;;;;;1.98;100.00;100682.69;5075292;28;20029;-68
2023/03/12 04:48:30;;;;;;;21.23;7.63;;;;;;;1.97;100.00;100691.31;5075064;28;20471;-68
2023/03/12 04:50:55;;;;;;;21.17;7.75;;;;;;;2.02;100.00;100688.88;5074978;28;20162;-68
2023/03/12 04:53:21;;;;;;;21.00;7.22;;;;;;;2.00;100.00;100682.72;5075023;28;20024;-68
2023/03/12 04:55:47;;;;;;;22.40;7.78;;;;;;;2.00;100.00;100680.13;5074691;28;20036;-70
2023/03/12 04:58:13;;;;;;;20.70;7.45;;;;;;;2.02;100.00;100683.66;5075064;28;20498;-69
2023/03/12 05:00:39;;;;;;;22.02;7.60;;;;;;;2.04;100.00;100669.84;5075014;28;20033;-71
2023/03/12 05:03:05;;;;;;;21.20;7.15;;;;;;;2.00;100.00;100667.09;5074941;28;20372;-69
2023/03/12 05:05:30;;;;;;;21.80;7.43;;;;;;;2.01;100.00;100669.75;5074814;28;20107;-69
2023/03/12 05:07:56;;;;;;;21.08;7.95;;;;;;;2.00;100.00;100652.31;5075168;28;20036;-69
2023/03/12 05:10:21;;;;;;;21.80;7.70;;;;;;;2.00;100.00;100654.94;5074672;28;20024;-72
2023/03/12 05:12:46;;;;;;;20.42;7.35;;;;;;;1.96;100.00;100650.44;5074724;28;20106;-70
2023/03/12 05:15:12;;;;;;;20.70;7.57;;;;;;;1.96;100.00;100634.78;5074662;28;20118;-70
2023/03/12 05:17:37;;;;;;;20.77;7.35;;;;;;;1.97;100.00;100643.50;5074723;28;20039;-71
2023/03/12 05:20:06;;;;;;;21.63;7.43;;;;;;;1.94;100.00;100641.69;5074875;28;20039;-73
2023/03/12 05:22:32;;;;;;;21.60;7.55;;;;;;;1.94;100.00;100640.75;5074442;28;20051;-72
2023/03/12 05:24:57;;;;;;;21.33;7.93;;;;;;;1.92;100.00;100640.72;5074373;28;20024;-69
2023/03/12 05:27:24;;;;;;;22.40;7.60;;;;;;;1.89;100.00;100645.81;5074589;28;20115;-71
2023/03/12 05:29:50;;;;;;;21.33;7.65;;;;;;;1.85;100.00;100633.50;5074570;28;20029;-69
2023/03/12 05:32:16;;;;;;;22.20;7.50;;;;;;;1.82;100.00;100639.50;5074175;28;20540;-72
2023/03/12 05:34:41;;;;;;;21.33;7.90;;;;;;;1.81;100.00;100629.91;5073494;28;20467;-71
2023/03/12 05:37:06;;;;;;;21.25;7.82;;;;;;;1.80;100.00;100628.13;5074208;28;20446;-70
2023/03/12 05:39:32;;;;;;;22.42;7.65;;;;;;;1.76;100.00;100631.44;5074136;28;20025;-68
2023/03/12 05:41:58;;;;;;;21.58;7.93;;;;;;;1.76;100.00;100630.56;5074283;28;20024;-68
2023/03/12 05:44:24;;;;;;;22.75;8.23;;;;;;;1.71;100.00;100627.81;5074071;28;20040;-71
2023/03/12 05:46:51;;;;;;;20.73;7.85;;;;;;;1.70;100.00;100626.94;5074273;28;20032;-72
2023/03/12 05:49:17;;;;;;;22.85;8.13;;;;;;;1.70;100.00;100616.50;5074173;28;20020;-68
2023/03/12 05:51:42;;;;;;;20.73;8.30;;;;;;;1.72;100.00;100619.16;5072633;28;20494;-69
2023/03/12 05:54:09;;;;;;;22.70;8.40;;;;;;;1.71;100.00;100623.47;5073794;28;20056;-69
2023/03/12 05:56:37;;;;;;;22.60;8.60;;;;;;;1.73;100.00;100620.91;5073842;28;20079;-69
2023/03/12 05:59:03;;;;;;;21.98;8.10;;;;;;;1.70;100.00;100621.72;5073726;28;20047;-69
2023/03/12 06:01:32;;;;;;;23.10;8.45;;;;;;;1.72;100.00;100624.38;5073438;28;20021;-69
2023/03/12 06:03:58;;;;;;;22.35;8.50;;;;;;;1.74;100.00;100620.09;5070150;28;20138;-72
2023/03/12 06:06:24;;;;;;;20.45;8.02;;;;;;;1.76;100.00;100625.34;5073534;28;20479;-68
2023/03/12 06:08:50;;;;;;;22.70;8.23;;;;;;;1.77;100.00;100627.13;5073586;28;20085;-68
2023/03/12 06:11:15;;;;;;;22.77;8.50;;;;;;;1.80;100.00;100642.88;5073470;28;20059;-68
2023/03/12 06:13:41;;;;;;;20.33;8.10;;;;;;;1.80;100.00;100635.94;5073410;28;20060;-69
2023/03/12 06:16:27;;;;;;;21.55;8.45;;;;;;;1.82;100.00;100630.78;5073355;28;20024;-69
2023/03/12 06:18:58;;;;;;;22.48;8.40;;;;;;;1.84;100.00;100639.56;5073658;28;20035;-68
2023/03/12 06:21:26;;;;;;;23.10;9.20;;;;;;;1.85;100.00;100649.13;5073466;28;20044;-68
2023/03/12 06:23:52;;;;;;;22.42;8.80;;;;;;;1.83;100.00;100658.63;5073244;28;20061;-68
2023/03/12 06:26:19;;;;;;;23.13;9.10;;;;;;;1.86;100.00;100649.19;5073176;28;20052;-68
2023/03/12 06:28:46;;;;;;;22.80;9.20;;;;;;;1.83;100.00;100640.38;5073713;28;20422;-68
2023/03/12 06:31:11;;;;;;;22.75;9.50;;;;;;;1.85;100.00;100636.09;5073112;28;20034;-68
2023/03/12 06:33:37;;;;;;;22.42;9.27;;;;;;;1.83;100.00;100629.97;5072954;28;20074;-68
2023/03/12 06:36:04;;;;;;;22.52;9.73;;;;;;;1.83;100.00;100632.56;5073243;28;20039;-69
2023/03/12 06:38:30;;;;;;;22.85;9.93;;;;;;;1.79;100.00;100626.38;5072963;28;20024;-69
2023/03/12 06:41:07;;;;;;;23.10;9.82;;;;;;;1.73;100.00;100619.22;5073048;28;20534;-69
2023/03/12 06:43:35;;;;;;;22.80;11.43;;;;;;;1.68;100.00;100615.53;5073008;28;20051;-68
2023/03/12 06:46:02;;;;;;;23.33;11.38;;;;;;;1.70;100.00;100621.72;5072875;28;20032;-69
2023/03/12 06:48:29;;;;;;;28.65;13.45;;;;;;;1.74;100.00;100612.28;5072823;28;20025;-69
2023/03/12 06:50:54;;;;;;;28.17;13.38;;;;;;;1.76;100.00;100609.72;5073130;28;20493;-68
2023/03/12 06:53:20;;;;;;;27.98;13.52;;;;;;;1.74;100.00;100597.50;5072947;28;20036;-68
2023/03/12 06:55:49;;;;;;;25.20;12.48;;;;;;;1.77;100.00;100595.88;5072505;28;20060;-68
2023/03/12 06:58:15;;;;;;;26.35;13.05;;;;;;;1.74;100.00;100601.84;5073041;28;20511;-68
2023/03/12 07:00:40;;;;;;;25.98;13.00;;;;;;;1.73;100.00;100600.06;5072471;28;20103;-68
2023/03/12 07:03:06;;;;;;;25.67;13.57;;;;;;;1.70;100.00;100585.22;5072556;28;20032;-68
2023/03/12 07:05:32;;;;;;;31.65;17.80;;;;;;;1.74;100.00;100586.22;5072837;28;20028;-68
2023/03/12 07:07:57;;;;;;;27.00;14.20;;;;;;;1.76;100.00;100583.66;5072590;28;20060;-68
2023/03/12 07:10:22;;;;;;;27.40;14.10;;;;;;;1.77;100.00;100590.66;5072622;28;20036;-69
2023/03/12 07:12:48;;;;;;;29.25;15.23;;;;;;;1.73;100.00;100585.34;5072807;28;20119;-68
2023/03/12 07:15:13;;;;;;;28.42;14.63;;;;;;;1.76;100.00;100583.66;5072629;28;20521;-68
2023/03/12 07:17:39;;;;;;;27.70;14.98;;;;;;;1.80;100.00;100586.41;5072539;28;20024;-68
2023/03/12 07:20:05;;;;;;;29.67;15.18;;;;;;;1.82;100.00;100587.38;5072646;28;20062;-68
2023/03/12 07:22:30;;;;;;;28.30;14.32;;;;;;;1.87;100.00;100598.84;5072500;28;20028;-68
2023/03/12 07:24:56;;;;;;;27.33;15.50;;;;;;;1.87;100.00;100601.44;5072372;28;20024;-68
2023/03/12 07:27:21;;;;;;;29.10;15.13;;;;;;;1.90;100.00;100598.06;5072687;28;20060;-68
2023/03/12 07:29:47;;;;;;;28.92;15.93;;;;;;;1.91;100.00;100598.13;5072336;28;20033;-68
2023/03/12 07:32:12;;;;;;;28.70;15.80;;;;;;;1.91;100.00;100605.06;5072632;28;20437;-68
2023/03/12 07:34:37;;;;;;;29.88;16.25;;;;;;;1.94;100.00;100615.59;5072420;28;20029;-68
2023/03/12 07:37:03;;;;;;;28.95;16.35;;;;;;;1.97;100.00;100604.41;5072402;28;20029;-68
2023/03/12 07:39:29;;;;;;;30.70;17.08;;;;;;;1.99;100.00;100611.41;5072535;28;20024;-68
2023/03/12 07:41:55;;;;;;;29.27;16.60;;;;;;;2.03;100.00;100608.09;5072278;28;20375;-68
2023/03/12 07:44:20;;;;;;;29.27;16.50;;;;;;;2.02;100.00;100600.22;5072241;28;20056;-68
2023/03/12 07:46:45;;;;;;;30.52;17.15;;;;;;;2.03;100.00;100605.47;5072355;28;20527;-68
2023/03/12 07:49:11;;;;;;;30.80;18.30;;;;;;;2.05;100.00;100614.28;5072239;28;20419;-69
2023/03/12 07:51:36;;;;;;;30.23;18.00;;;;;;;2.09;100.00;100615.25;5072103;28;20430;-68
2023/03/12 07:54:01;;;;;;;29.75;18.75;;;;;;;2.14;100.00;100612.78;5072593;28;20052;-68
2023/03/12 07:56:27;;;;;;;31.13;17.98;;;;;;;2.19;100.00;100608.63;5071833;28;20064;-68
2023/03/12 07:58:52;;;;;;;31.20;17.90;;;;;;;2.18;100.00;100599.91;5072070;28;20076;-69
2023/03/12 08:01:18;;;;;;;30.77;18.75;;;;;;;2.30;100.00;100614.22;5072201;28;20028;-68
2023/03/12 08:03:43;;;;;;;28.30;17.35;;;;;;;2.34;100.00;100605.66;5072153;28;20032;-68
2023/03/12 08:06:09;;;;;;;31.73;18.80;;;;;;;2.37;100.00;100608.38;5071961;28;20031;-69
2023/03/12 08:08:36;;;;;;;30.13;18.45;;;;;;;2.40;100.00;100601.56;5072239;28;20035;-68
2023/03/12 08:11:03;;;;;;;32.47;19.38;;;;;;;2.48;100.00;100596.56;5072212;28;20061;-68
2023/03/12 08:13:29;;;;;;;30.73;19.35;;;;;;;2.54;100.00;100595.91;5073912;28;20429;-69
2023/03/12 08:15:55;;;;;;;29.55;18.50;;;;;;;2.60;100.00;100599.56;5076137;28;20039;-69
2023/03/12 08:18:21;;;;;;;29.95;18.95;;;;;;;2.67;100.00;100602.41;5075593;28;20040;-68
2023/03/12 08:20:50;;;;;;;31.25;19.05;;;;;;;2.73;100.00;100600.88;5075516;28;20062;-69
2023/03/12 08:23:16;;;;;;;28.98;18.92;;;;;;;2.81;100.00;100602.84;5075810;28;20054;-68
2023/03/12 08:25:44;;;;;;;30.90;18.60;;;;;;;2.85;100.00;100616.03;5075746;28;20391;-68
2023/03/12 08:28:09;;;;;;;30.20;18.35;;;;;;;2.93;100.00;100609.34;5075500;28;20510;-69
2023/03/12 08:30:35;;;;;;;29.42;17.65;;;;;;;3.00;100.00;100613.03;5075662;28;20037;-68
2023/03/12 08:33:00;;;;;;;29.63;17.35;;;;;;;3.05;100.00;100611.44;5075293;28;20037;-69
2023/03/12 08:35:25;;;;;;;30.80;18.02;;;;;;;3.14;100.00;100616.06;5075225;28;20020;-69
2023/03/12 08:37:51;;;;;;;30.30;18.13;;;;;;;3.21;100.00;100623.25;5075540;28;20032;-68
2023/03/12 08:40:17;;;;;;;29.20;18.85;;;;;;;3.29;100.00;100628.72;5075274;28;20032;-68
2023/03/12 08:42:44;;;;;;;30.85;18.75;;;;;;;3.36;100.00;100622.84;5075328;28;20033;-68
2023/03/12 08:45:11;;;;;;;30.45;18.75;;;;;;;3.44;100.00;100629.19;5075202;28;20031;-68
2023/03/12 08:47:40;;;;;;;29.30;18.73;;;;;;;3.51;100.00;100634.59;5075090;28;20028;-69
2023/03/12 08:50:07;;;;;;;30.33;18.75;;;;;;;3.59;100.00;100633.09;5075082;28;20522;-68
2023/03/12 08:52:32;;;;;;;30.63;18.73;;;;;;;3.69;100.00;100640.38;5075197;28;20509;-68
2023/03/12 08:54:57;;;;;;;31.58;19.55;;;;;;;3.76;100.00;100644.94;5074832;28;20052;-68
2023/03/12 08:57:23;;;;;;;31.65;20.25;;;;;;;3.81;100.00;100643.31;5074851;28;20423;-68
2023/03/12 08:59:48;;;;;;;33.60;20.85;;;;;;;3.89;100.00;100642.66;5074911;28;20433;-69
2023/03/12 09:02:13;;;;;;;34.35;21.23;;;;;;;3.98;100.00;100650.78;5073536;28;20028;-68
2023/03/12 09:04:39;;;;;;;36.85;22.08;;;;;;;4.06;100.00;100638.78;5075014;28;20060;-68
2023/03/12 09:07:04;;;;;;;37.28;23.02;;;;;;;4.15;100.00;100644.28;5074783;28;20044;-68
2023/03/12 09:09:30;;;;;;;40.88;24.92;;;;;;;4.25;100.00;100645.44;5074816;28;20379;-70
2023/03/12 09:11:56;;;;;;;43.35;25.45;;;;;;;4.39;100.00;100648.41;5075757;28;20061;-73
2023/03/12 09:14:21;;;;;;;42.22;25.70;;;;;;;4.53;100.00;100649.63;5070871;28;20410;-75
2023/03/12 09:16:47;;;;;;;44.90;28.00;;;;;;;4.69;100.00;100653.53;5068715;28;20028;-76
2023/03/12 09:19:12;;;;;;;43.92;26.80;;;;;;;4.81;100.00;100641.59;5069085;28;20436;-75
2023/03/12 09:21:38;;;;;;;44.72;27.80;;;;;;;4.96;100.00;100636.72;5068066;28;20048;-72
2023/03/12 09:24:05;;;;;;;42.75;26.77;;;;;;;5.10;100.00;100644.00;5068772;28;20028;-75
2023/03/12 09:26:30;;;;;;;44.00;27.67;;;;;;;5.15;100.00;100640.66;5069191;28;20476;-74
2023/03/12 09:28:56;;;;;;;43.90;28.40;;;;;;;5.23;100.00;100641.72;5067600;28;20036;-73
2023/03/12 09:31:22;;;;;;;43.60;29.40;;;;;;;5.34;100.00;100635.84;5076597;28;20128;-77
2023/03/12 09:33:48;;;;;;;43.75;27.75;;;;;;;5.40;100.00;100642.13;5064099;28;20527;-77
2023/03/12 09:36:13;;;;;;;43.38;28.67;;;;;;;5.45;100.00;100642.22;5065007;28;20104;-77
2023/03/12 09:38:38;;;;;;;43.65;28.45;;;;;;;5.48;100.00;100633.53;5074767;28;20076;-77
2023/03/12 09:41:05;;;;;;;44.10;29.38;;;;;;;5.58;100.00;100641.63;5075612;28;20384;-71
2023/03/12 09:43:37;;;;;;;42.72;29.02;;;;;;;5.66;100.00;100647.03;5070831;28;20111;-69
2023/03/12 09:46:08;;;;;;;44.93;29.57;;;;;;;5.77;100.00;100647.28;5060654;28;20383;-70
2023/03/12 09:48:36;;;;;;;42.88;28.90;;;;;;;5.88;100.00;100653.63;5075421;28;20294;-70
2023/03/12 09:51:34;;;;;;;44.25;29.00;;;;;;;5.96;100.00;100658.16;5068968;28;20020;-70
2023/03/12 09:54:04;;;;;;;40.47;27.05;;;;;;;5.97;100.00;100662.53;5065853;28;20073;-71
2023/03/12 09:56:30;;;;;;;40.78;28.58;;;;;;;6.01;100.00;100669.63;5072210;28;20040;-68
2023/03/12 09:58:55;;;;;;;41.08;27.23;;;;;;;6.06;100.00;100671.50;5070659;28;20029;-71
2023/03/12 10:01:27;;;;;;;42.42;27.90;;;;;;;6.09;100.00;100676.81;5066734;28;20025;-80
2023/03/12 10:03:56;;;;;;;42.72;28.77;;;;;;;6.13;100.00;100675.16;5068254;28;20111;-77
2023/03/12 10:06:28;;;;;;;41.88;28.15;;;;;;;6.18;100.00;100673.47;5064880;28;20037;-73
2023/03/12 10:09:16;;;;;;;41.10;28.45;;;;;;;6.32;100.00;100679.00;5065829;28;20063;-72
2023/03/12 10:12:04;;;;;;;42.40;28.25;;;;;;;6.43;100.00;100684.44;5074826;28;20110;-73
2023/03/12 10:14:58;;;;;;;39.63;26.98;;;;;;;6.55;100.00;100684.69;5070738;28;20059;-79
2023/03/12 10:17:43;;;;;;;43.05;28.33;;;;;;;6.66;100.00;100684.00;5063751;28;20087;-68
2023/03/12 10:20:27;;;;;;;41.33;27.52;;;;;;;6.71;100.00;100677.06;5055072;28;20483;-75
2023/03/12 10:23:14;;;;;;;40.85;27.20;;;;;;;6.70;100.00;100667.41;5070767;28;20467;-76
2023/03/12 10:26:04;;;;;;;41.50;27.35;;;;;;;6.71;100.00;100670.06;5068250;28;20472;-73
2023/03/12 10:28:52;;;;;;;42.03;26.95;;;;;;;6.73;100.00;100671.00;5068030;28;20028;-72
2023/03/12 10:31:30;;;;;;;44.33;27.63;;;;;;;6.74;100.00;100670.16;5073263;28;20024;-77
2023/03/12 10:34:01;;;;;;;45.47;27.00;;;;;;;6.79;100.00;100671.09;5064340;28;20024;-77
2023/03/12 10:36:38;;;;;;;45.45;27.55;;;;;;;6.90;100.00;100675.63;5067346;28;20028;-78
2023/03/12 10:39:11;;;;;;;47.55;28.00;;;;;;;6.96;100.00;100665.22;5067508;28;20078;-73
2023/03/12 10:41:37;;;;;;;44.83;28.23;;;;;;;7.08;100.00;100661.94;5070138;28;20040;-76
2023/03/12 10:44:07;;;;;;;44.45;27.40;;;;;;;7.13;100.00;100676.00;5065884;28;20475;-77
2023/03/12 10:46:49;;;;;;;43.53;26.45;;;;;;;7.25;100.00;100670.97;5071832;28;20547;-76
2023/03/12 10:49:20;;;;;;;47.40;28.63;;;;;;;7.38;100.00;100668.50;5074942;28;20066;-76
2023/03/12 10:51:57;;;;;;;47.30;26.50;;;;;;;7.47;100.00;100666.91;5075177;28;20051;-77
2023/03/12 10:54:31;;;;;;;43.88;26.38;;;;;;;7.49;100.00;100672.19;5071309;28;20479;-77
2023/03/12 10:56:57;;;;;;;44.38;25.80;;;;;;;7.45;100.00;100665.09;5072468;28;20049;-77
2023/03/12 10:59:27;;;;;;;46.83;27.08;;;;;;;7.53;100.00;100671.38;5065970;28;20119;-76
2023/03/12 11:01:53;;;;;;;43.85;26.65;;;;;;;7.59;100.00;100676.69;5070001;28;20370;-72
2023/03/12 11:04:24;;;;;;;44.35;25.77;;;;;;;7.72;100.00;100674.22;5064348;28;20078;-68
2023/03/12 11:07:10;;;;;;;41.95;24.60;;;;;;;7.83;100.00;100667.34;5067732;28;20494;-68
2023/03/12 11:09:36;;;;;;;42.47;24.23;;;;;;;7.93;100.00;100671.00;5069759;28;20391;-69
2023/03/12 11:12:01;;;;;;;45.28;22.50;;;;;;;8.00;100.00;100680.75;5072605;28;20028;-69
2023/03/12 11:14:28;;;;;;;40.80;21.67;;;;;;;8.10;100.00;100679.13;5072576;28;20033;-76
2023/03/12 11:16:55;;;;;;;41.20;22.45;;;;;;;8.13;100.00;100681.78;5071152;28;20409;-76
2023/03/12 11:19:31;;;;;;;41.40;22.33;;;;;;;8.10;100.00;100693.16;5072759;28;20029;-68